Airfield :
LOGIN :

Register | Disclaimer

   EN    FR    IT 

 










Legend :    VFR   Marginal VFR   IFR   Intensive IFR   Very Intensive IFR
Visi :
Ceiling :
>= 8 km
>= 3000ft
5 to 8 km
1000 to 3000 ft
1500m to 5 km
500 to 1000 ft
800 to 1500m
200 to 500 ft
< 800m
< 200 ft
Symbols :   Thunderstorms  Fog  Heavy snow  Heavy precipitations  Wind > 20 kt
SIGMETs :     Misc.  Thunderstorms  Icing  Turbulence  Mountain Waves  Volcanic Ashes






- Airport Elevation : 622 ft
- IATA code : BRS


EGGD - Bristol Int.

CURRENT METAR :
  • 221320Z AUTO 11012KT 9999 NCD 13/M02 Q1026

EXPIRED METARs :
  • 221250Z AUTO 09011KT 070V130 9999 NCD 13/M02 Q1026
  • 221220Z AUTO 08010KT 9999 NCD 12/M00 Q1026
  • 221150Z AUTO 08011KT 9999 NCD 12/M00 Q1026
  • 221120Z AUTO 09013KT 9999 NCD 11/M01 Q1026
  • 221050Z AUTO 08011KT 9999 NCD 10/M00 Q1026
  • 221020Z AUTO 08010KT 9999 NCD 09/00 Q1026

TAF TAF EGGD
Valid from the 22 at 12:00 until the 23 at 12:00 UTC


221103Z 2212/2312 08010KT CAVOK
ATIS : +44 1275 473 666



MET'MAP, your aeronautical weather chart ! - Copyright ORBIFLY December 2007 - Disclaimer

ORBIFLY MET'MAP TEAM :

Programming & Development : Alexandra Zaïnal
Concept & original design : Baudouin d'Aumeries
Assistance for programming : Marc-Olivier Méhu
Technical & hardware support : Manuel Goepfert

Contact : metmap@orbifly.com




SOURCES & CREDITS :

   NOAA